NCAR-RAP Real-Time Weather Data

Output produced by METARs form (18 August 2018  01:02 UTC)
found at http://weather.rap.ucar.edu/surface/
 
RJCN 180000Z 34008KT 280V360 9999 -SHRA FEW020 BKN035 14/09 Q1009
RJCN 172330Z 33008KT 280V020 9999 -SHRA FEW020 BKN035 14/08 Q1009
RJCN 170900Z 34013G24KT 310V020 9999 FEW025 SCT080 BKN/// 13/09 Q1005
RJCN 170800Z 35014G24KT 320V020 9999 -SHRA FEW025 SCT080 BKN150 13/10 Q1005
RJCN 170700Z 35012G22KT 310V020 9999 FEW025 SCT100 BKN150 15/09 Q1004
RJCN 170600Z 35011KT 300V030 9999 FEW025 SCT080 BKN150 15/10 Q1004
RJCN 170500Z VRB05KT 9999 FEW030 SCT100 BKN150 15/10 Q1004
RJCN 170400Z 36017KT 320V030 9999 -SHRA FEW015 SCT030 BKN080 15/10 Q1003
RJCN 170300Z 36011KT 300V040 9999 -SHRA FEW015 SCT030 BKN080 15/11 Q1003
RJCN 170200Z 36008KT 320V030 9999 -SHRA FEW015 SCT040 BKN070 16/12 Q1003
RJCN 170100Z 35007KT 310V020 9999 -SHRA FEW015 BKN040 BKN070 15/11 Q1003
RJCN 170000Z 36009KT 330V040 9999 -SHRA FEW015 BKN050 BKN080 15/11 Q1002
RJCN 162330Z 02007KT 350V050 9999 -SHRA FEW015 SCT030 BKN045 14/11 Q1002
RJCN 160900Z 04009KT 4000 SHRA BR FEW002 SCT003 BKN005 12/12 Q1005
RJCN 160800Z 03012KT 3200 SHRA BR FEW002 SCT003 BKN005 13/12 Q1005
RJCN 160719Z 05011KT 3100 SHRA BR FEW002 SCT003 BKN004 13/12 Q1004 RMK 1ST002 4ST003 7ST004 A2967
RJCN 160700Z 05010KT 3200 -SHRA BR FEW002 SCT003 BKN004 13/12 Q1005
RJCN 160624Z 04011KT 360V070 3000 SHRA BR FEW002 SCT003 BKN005 12/12 Q1005 RMK 1ST002 4ST003 7ST005 A2969
RJCN 160600Z 04012KT 010V070 3000 -SHRA BR FEW002 SCT003 BKN005 12/12 Q1005
RJCN 160500Z 03012KT 3100 -SHRA BR FEW002 SCT003 BKN005 13/12 Q1006
RJCN 160434Z 03012KT 3200 -SHRA BR FEW002 SCT003 BKN005 13/12 Q1007 RMK 1ST002 4ST003 7ST005 A2974
RJCN 160400Z 03010KT 360V060 2500 SHRA BR FEW002 SCT003 BKN005 13/13 Q1007
RJCN 160332Z 02011KT 350V060 2500 SHRA BR FEW002 SCT003 BKN005 13/13 Q1007 RMK 1ST002 4ST003 7ST005 A2976
RJCN 160300Z 05010KT 3000 -SHRA BR FEW002 SCT003 BKN005 14/13 Q1008
RJCN 160231Z 05007KT 3100 -SHRA BR FEW002 BKN003 BKN006 14/13 Q1008 RMK 1ST002 5ST003 7ST006 A2977
RJCN 160209Z 05011KT 4900 -SHRA BR FEW003 SCT004 BKN006 14/13 Q1008 RMK 2ST003 4ST004 7ST006 A2977
RJCN 160200Z 05011KT 5000 -SHRA BR FEW002 SCT003 BKN006 14/13 Q1008
RJCN 160100Z 05010KT 3200 -SHRA BR FEW002 BKN003 13/13 Q1009
RJCN 160000Z 05012KT 2500 -SHRA BR FEW002 BKN003 BKN006 13/13 Q1010
RJCN 152330Z 06011KT 3000 -SHRA BR FEW002 BKN003 14/13 Q1010